Time;durP1;ratioP1;P1;durP2;ratioP2;P2;SDS_P1;SDS_P2;PMS_P1;PMS_P2;Temp;Humidity;BMP_temperature;BMP_pressure;BME280_temperature;BME280_humidity;BME280_pressure;Samples;Min_cycle;Max_cycle;Signal;HPM_P1;HPM_P2
2024/01/09 00:00:54;;;;;;;;;;;10.60;66.50;;;;;;6275772;22;19907;-84
2024/01/09 00:03:19;;;;;;;;;;;10.30;66.10;;;;;;6276024;22;19926;-84
2024/01/09 00:05:45;;;;;;;;;;;10.30;66.40;;;;;;6276016;22;19904;-84
2024/01/09 00:08:11;;;;;;;;;;;10.90;66.70;;;;;;6276015;22;20397;-84
2024/01/09 00:10:37;;;;;;;;;;;10.30;66.40;;;;;;6276042;22;19949;-84
2024/01/09 00:13:04;;;;;;;;;;;10.80;66.90;;;;;;6276857;22;19903;-84
2024/01/09 00:15:30;;;;;;;;;;;10.30;65.60;;;;;;6276037;22;19904;-84
2024/01/09 00:17:59;;;;;;;;;;;11.00;66.80;;;;;;6276243;22;19926;-84
2024/01/09 00:20:25;;;;;;;;;;;11.00;66.80;;;;;;6276220;22;19930;-84
2024/01/09 00:22:51;;;;;;;;;;;10.90;66.60;;;;;;6276520;22;19904;-84
2024/01/09 00:25:18;;;;;;;;;;;10.30;66.30;;;;;;6276590;22;19904;-84
2024/01/09 00:27:44;;;;;;;;;;;10.20;66.20;;;;;;6276641;22;19911;-84
2024/01/09 00:30:10;;;;;;;;;;;10.90;67.00;;;;;;6278497;22;19907;-84
2024/01/09 00:32:37;;;;;;;;;;;10.20;64.20;;;;;;6277887;22;20342;-84
2024/01/09 00:35:03;;;;;;;;;;;10.90;66.80;;;;;;6278283;22;20211;-84
2024/01/09 00:37:29;;;;;;;;;;;10.20;65.50;;;;;;6278351;22;19910;-84
2024/01/09 00:39:55;;;;;;;;;;;10.60;66.50;;;;;;6278247;22;20208;-83
2024/01/09 00:42:21;;;;;;;;;;;10.30;66.20;;;;;;6278385;22;19910;-83
2024/01/09 00:44:47;;;;;;;;;;;10.90;66.60;;;;;;6278371;22;19904;-84
2024/01/09 00:47:13;;;;;;;;;;;10.10;66.20;;;;;;6277625;22;20563;-84
2024/01/09 00:49:39;;;;;;;;;;;10.80;66.60;;;;;;6277563;22;19903;-84
2024/01/09 00:52:04;;;;;;;;;;;10.20;66.30;;;;;;6277593;22;19903;-84
2024/01/09 00:54:30;;;;;;;;;;;10.10;65.90;;;;;;6278166;22;19911;-83
2024/01/09 00:56:55;;;;;;;;;;;10.70;66.70;;;;;;6277453;22;19985;-83
2024/01/09 00:59:21;;;;;;;;;;;10.20;66.40;;;;;;6277219;22;19904;-83
2024/01/09 01:01:48;;;;;;;;;;;10.20;65.80;;;;;;6276956;22;19911;-82
2024/01/09 01:04:14;;;;;;;;;;;10.20;66.70;;;;;;6277400;22;20016;-83
2024/01/09 01:06:40;;;;;;;;;;;10.10;66.30;;;;;;6277230;22;20337;-83
2024/01/09 01:09:05;;;;;;;;;;;10.80;66.70;;;;;;6277777;22;19907;-83
2024/01/09 01:11:32;;;;;;;;;;;10.40;66.50;;;;;;6277194;22;19910;-83
2024/01/09 01:13:57;;;;;;;;;;;10.80;66.40;;;;;;6277538;22;19948;-83
2024/01/09 01:16:23;;;;;;;;;;;10.70;66.50;;;;;;6277270;22;19903;-83
2024/01/09 01:18:49;;;;;;;;;;;10.40;66.30;;;;;;6277160;22;19903;-83
2024/01/09 01:21:15;;;;;;;;;;;10.70;66.40;;;;;;6277328;22;19990;-83
2024/01/09 01:23:41;;;;;;;;;;;10.10;66.00;;;;;;6277288;22;19907;-83
2024/01/09 01:26:07;;;;;;;;;;;10.70;66.80;;;;;;6277135;22;19949;-83
2024/01/09 01:28:33;;;;;;;;;;;10.80;66.40;;;;;;6277614;22;19911;-83
2024/01/09 01:30:58;;;;;;;;;;;10.20;66.00;;;;;;6277691;22;19903;-83
2024/01/09 01:33:24;;;;;;;;;;;10.10;65.90;;;;;;6277311;22;19904;-83
2024/01/09 01:35:50;;;;;;;;;;;10.00;66.00;;;;;;6277570;22;19914;-83
2024/01/09 01:38:16;;;;;;;;;;;10.50;66.10;;;;;;6278127;22;19903;-82
2024/01/09 01:40:42;;;;;;;;;;;10.80;66.40;;;;;;6276865;22;19903;-82
2024/01/09 01:43:08;;;;;;;;;;;10.00;66.10;;;;;;6277379;22;19995;-82
2024/01/09 01:45:34;;;;;;;;;;;10.40;66.30;;;;;;6277512;22;19986;-82
2024/01/09 01:48:01;;;;;;;;;;;10.20;66.00;;;;;;6277001;22;20326;-82
2024/01/09 01:50:28;;;;;;;;;;;9.90;65.40;;;;;;6276944;22;19934;-83
2024/01/09 01:52:54;;;;;;;;;;;10.00;66.00;;;;;;6277460;22;19909;-83
2024/01/09 01:55:21;;;;;;;;;;;10.60;66.20;;;;;;6277147;22;19935;-83
2024/01/09 01:57:49;;;;;;;;;;;10.50;66.20;;;;;;6277379;22;19954;-83
2024/01/09 02:00:16;;;;;;;;;;;10.30;66.30;;;;;;6276940;22;19904;-82
2024/01/09 02:02:42;;;;;;;;;;;10.00;66.00;;;;;;6276865;22;20284;-83
2024/01/09 02:05:08;;;;;;;;;;;10.00;66.50;;;;;;6277421;22;19904;-83
2024/01/09 02:07:35;;;;;;;;;;;10.00;66.00;;;;;;6277684;22;20270;-82
2024/01/09 02:10:02;;;;;;;;;;;10.00;66.10;;;;;;6276952;22;19904;-82
2024/01/09 02:12:28;;;;;;;;;;;10.40;66.30;;;;;;6277175;22;19910;-82
2024/01/09 02:14:54;;;;;;;;;;;10.70;66.50;;;;;;6277347;22;20226;-82
2024/01/09 02:17:20;;;;;;;;;;;10.00;66.00;;;;;;6276927;22;19990;-82
2024/01/09 02:19:46;;;;;;;;;;;10.60;66.20;;;;;;6277017;22;19942;-83
2024/01/09 02:22:13;;;;;;;;;;;10.70;66.30;;;;;;6277213;22;19904;-84
2024/01/09 02:24:39;;;;;;;;;;;10.60;66.40;;;;;;6281088;22;19903;-86
2024/01/09 02:27:10;;;;;;;;;;;10.60;66.60;;;;;;6277762;22;20278;-85
2024/01/09 02:29:37;;;;;;;;;;;10.00;66.50;;;;;;6287258;22;20270;-85
2024/01/09 02:32:04;;;;;;;;;;;9.90;66.60;;;;;;6276486;22;19978;-84
2024/01/09 02:34:33;;;;;;;;;;;9.90;66.10;;;;;;6277716;22;20227;-84
2024/01/09 02:36:58;;;;;;;;;;;10.00;66.10;;;;;;6277286;22;19945;-84
2024/01/09 02:39:27;;;;;;;;;;;10.10;66.30;;;;;;6277011;22;20238;-83
2024/01/09 02:41:53;;;;;;;;;;;10.00;66.40;;;;;;6276426;22;19988;-82
2024/01/09 02:44:19;;;;;;;;;;;10.40;66.60;;;;;;6277903;22;19907;-83
2024/01/09 02:46:45;;;;;;;;;;;10.10;66.50;;;;;;6278608;22;19907;-83
2024/01/09 02:49:11;;;;;;;;;;;9.90;66.40;;;;;;6278748;22;19918;-83
2024/01/09 02:51:37;;;;;;;;;;;10.50;66.50;;;;;;6276916;22;19904;-82
2024/01/09 02:54:03;;;;;;;;;;;10.60;66.60;;;;;;6276938;22;19910;-83
2024/01/09 02:56:29;;;;;;;;;;;9.90;66.00;;;;;;6277150;22;20207;-83
2024/01/09 02:58:55;;;;;;;;;;;9.90;66.10;;;;;;6277157;22;19931;-83
2024/01/09 03:01:23;;;;;;;;;;;9.90;66.10;;;;;;6277307;22;20306;-83
2024/01/09 03:03:49;;;;;;;;;;;9.80;65.80;;;;;;6276748;22;19961;-82
2024/01/09 03:06:14;;;;;;;;;;;9.90;66.50;;;;;;6276578;22;19903;-82
2024/01/09 03:08:40;;;;;;;;;;;10.00;66.40;;;;;;6276911;22;19915;-82
2024/01/09 03:11:05;;;;;;;;;;;9.90;66.60;;;;;;6276406;22;20388;-82
2024/01/09 03:13:31;;;;;;;;;;;9.90;66.20;;;;;;6276274;22;19903;-82
2024/01/09 03:15:56;;;;;;;;;;;9.90;66.40;;;;;;6276690;22;19950;-82
2024/01/09 03:18:22;;;;;;;;;;;9.80;66.20;;;;;;6276436;22;19910;-81
2024/01/09 03:20:47;;;;;;;;;;;9.90;66.20;;;;;;6275925;22;19938;-81
2024/01/09 03:23:13;;;;;;;;;;;9.80;66.20;;;;;;6275963;22;19915;-81
2024/01/09 03:25:38;;;;;;;;;;;9.80;66.40;;;;;;6276156;22;20041;-81
2024/01/09 03:28:04;;;;;;;;;;;9.80;66.40;;;;;;6276022;22;19973;-81
2024/01/09 03:30:29;;;;;;;;;;;9.80;65.70;;;;;;6275933;22;20077;-81
2024/01/09 03:32:55;;;;;;;;;;;9.80;66.00;;;;;;6276793;22;19903;-82
2024/01/09 03:35:20;;;;;;;;;;;10.20;66.60;;;;;;6275878;22;19950;-82
2024/01/09 03:37:46;;;;;;;;;;;10.20;66.20;;;;;;6275901;22;20249;-82
2024/01/09 03:40:12;;;;;;;;;;;11.10;66.20;;;;;;6275923;22;19927;-82
2024/01/09 03:42:37;;;;;;;;;;;9.90;64.90;;;;;;6275940;22;19978;-81
2024/01/09 03:45:03;;;;;;;;;;;10.20;66.20;;;;;;6275954;22;19911;-81
2024/01/09 03:47:28;;;;;;;;;;;9.80;65.20;;;;;;6276307;22;19922;-81
2024/01/09 03:49:54;;;;;;;;;;;9.90;65.90;;;;;;6275978;22;19968;-80
2024/01/09 03:52:19;;;;;;;;;;;10.10;66.00;;;;;;6275703;22;19916;-81
2024/01/09 03:54:45;;;;;;;;;;;9.90;65.60;;;;;;6276243;22;19938;-81
2024/01/09 03:57:10;;;;;;;;;;;10.30;65.70;;;;;;6275640;22;20338;-80
2024/01/09 03:59:36;;;;;;;;;;;9.90;65.60;;;;;;6275756;22;19910;-81
2024/01/09 04:02:01;;;;;;;;;;;9.80;65.40;;;;;;6275744;22;20370;-81
2024/01/09 04:04:27;;;;;;;;;;;9.90;65.60;;;;;;6275509;22;19904;-81
2024/01/09 04:06:52;;;;;;;;;;;9.80;65.60;;;;;;6275701;22;19904;-81
2024/01/09 04:09:18;;;;;;;;;;;11.00;66.50;;;;;;6276125;22;19904;-81
2024/01/09 04:11:44;;;;;;;;;;;10.10;66.00;;;;;;6275802;22;19926;-81
2024/01/09 04:14:10;;;;;;;;;;;10.50;66.40;;;;;;6275861;22;19926;-81
2024/01/09 04:16:35;;;;;;;;;;;9.80;66.10;;;;;;6275850;22;19903;-81
2024/01/09 04:19:01;;;;;;;;;;;9.70;65.50;;;;;;6275615;22;19903;-81
2024/01/09 04:21:26;;;;;;;;;;;9.80;65.80;;;;;;6275743;22;19907;-81
2024/01/09 04:23:52;;;;;;;;;;;9.60;65.40;;;;;;6275893;22;19910;-84
2024/01/09 04:26:17;;;;;;;;;;;9.80;65.80;;;;;;6275493;22;19926;-81
2024/01/09 04:28:43;;;;;;;;;;;9.90;65.70;;;;;;6276066;22;20234;-82
2024/01/09 04:31:08;;;;;;;;;;;9.80;65.50;;;;;;6275394;22;19904;-82
2024/01/09 04:33:34;;;;;;;;;;;9.80;65.40;;;;;;6275515;22;19903;-82
2024/01/09 04:35:59;;;;;;;;;;;10.40;65.60;;;;;;6276194;22;19982;-83
2024/01/09 04:38:25;;;;;;;;;;;10.00;65.40;;;;;;6275678;22;19909;-83
2024/01/09 04:40:51;;;;;;;;;;;9.70;65.40;;;;;;6275675;22;19903;-82
2024/01/09 04:43:16;;;;;;;;;;;9.80;65.50;;;;;;6275530;22;19904;-82
2024/01/09 04:45:42;;;;;;;;;;;9.70;65.50;;;;;;6275493;22;20266;-83
2024/01/09 04:48:08;;;;;;;;;;;9.80;65.80;;;;;;6275337;22;19966;-83
2024/01/09 04:50:33;;;;;;;;;;;10.40;65.60;;;;;;6275576;22;19904;-82
2024/01/09 04:52:59;;;;;;;;;;;9.70;65.40;;;;;;6275594;22;19903;-83
2024/01/09 04:55:24;;;;;;;;;;;10.20;65.80;;;;;;6275460;22;19945;-83
2024/01/09 04:57:50;;;;;;;;;;;9.70;66.30;;;;;;6276241;22;20343;-82
2024/01/09 05:00:18;;;;;;;;;;;9.60;65.80;;;;;;6275344;22;20315;-82
2024/01/09 05:02:44;;;;;;;;;;;9.60;65.30;;;;;;6275305;22;19915;-82
2024/01/09 05:05:10;;;;;;;;;;;10.30;66.20;;;;;;6275329;22;19931;-82
2024/01/09 05:07:35;;;;;;;;;;;10.10;66.00;;;;;;6275404;22;19943;-82
2024/01/09 05:10:01;;;;;;;;;;;9.60;65.70;;;;;;6276116;22;19911;-82
2024/01/09 05:12:26;;;;;;;;;;;9.70;66.40;;;;;;6275421;22;19903;-82
2024/01/09 05:14:52;;;;;;;;;;;10.20;66.10;;;;;;6277152;22;19986;-82
2024/01/09 05:17:17;;;;;;;;;;;9.90;66.10;;;;;;6277886;22;20326;-81
2024/01/09 05:19:42;;;;;;;;;;;10.00;66.40;;;;;;6277194;22;20280;-81
2024/01/09 05:22:08;;;;;;;;;;;10.30;66.40;;;;;;6277052;22;19903;-82
2024/01/09 05:24:35;;;;;;;;;;;9.60;62.60;;;;;;6276811;22;20293;-81
2024/01/09 05:27:01;;;;;;;;;;;9.70;65.70;;;;;;6278376;22;19908;-81
2024/01/09 05:29:26;;;;;;;;;;;9.70;66.00;;;;;;6277666;22;19914;-81
2024/01/09 05:31:52;;;;;;;;;;;10.00;66.30;;;;;;6276984;22;19903;-81
2024/01/09 05:34:17;;;;;;;;;;;9.70;66.20;;;;;;6277548;22;19948;-82
2024/01/09 05:36:43;;;;;;;;;;;10.10;66.60;;;;;;6277024;22;20273;-82
2024/01/09 05:39:08;;;;;;;;;;;9.60;65.90;;;;;;6277118;22;19938;-82
2024/01/09 05:41:35;;;;;;;;;;;10.10;66.40;;;;;;6276914;22;19904;-82
2024/01/09 05:44:00;;;;;;;;;;;9.80;66.50;;;;;;6277344;22;19923;-82
2024/01/09 05:46:26;;;;;;;;;;;9.60;66.30;;;;;;6276918;22;19934;-82
2024/01/09 05:48:52;;;;;;;;;;;9.60;66.50;;;;;;6276992;22;19911;-82
2024/01/09 05:51:18;;;;;;;;;;;9.60;66.40;;;;;;6277038;22;19910;-82
2024/01/09 05:53:44;;;;;;;;;;;9.90;66.90;;;;;;6277046;22;19904;-82
2024/01/09 05:56:09;;;;;;;;;;;10.10;67.00;;;;;;6277319;22;20242;-81
2024/01/09 05:58:35;;;;;;;;;;;9.60;66.40;;;;;;6276971;22;19934;-81
2024/01/09 06:01:01;;;;;;;;;;;10.20;66.80;;;;;;6276950;22;19910;-81
2024/01/09 06:03:26;;;;;;;;;;;9.50;66.20;;;;;;6276660;22;19947;-81
2024/01/09 06:05:52;;;;;;;;;;;9.70;66.80;;;;;;6276966;22;20188;-82
2024/01/09 06:08:17;;;;;;;;;;;9.60;66.80;;;;;;6277439;22;19966;-82
2024/01/09 06:10:43;;;;;;;;;;;10.20;67.00;;;;;;6249523;22;19935;-82
2024/01/09 06:13:08;;;;;;;;;;;10.10;66.70;;;;;;6276849;22;19903;-82
2024/01/09 06:15:34;;;;;;;;;;;10.20;66.70;;;;;;6276625;22;19909;-83
2024/01/09 06:17:59;;;;;;;;;;;9.60;66.60;;;;;;6276679;22;20278;-82
2024/01/09 06:20:25;;;;;;;;;;;9.40;66.50;;;;;;6276582;22;19910;-82
2024/01/09 06:22:50;;;;;;;;;;;9.60;66.60;;;;;;6277895;22;20234;-81
2024/01/09 06:25:16;;;;;;;;;;;10.10;66.80;;;;;;6276303;22;19903;-89
2024/01/09 06:27:41;;;;;;;;;;;10.20;66.70;;;;;;6276537;22;19976;-84
2024/01/09 06:30:07;;;;;;;;;;;9.50;66.50;;;;;;6276938;22;20300;-84
2024/01/09 06:32:33;;;;;;;;;;;9.40;65.60;;;;;;6276348;22;19903;-83
2024/01/09 06:34:58;;;;;;;;;;;9.40;66.40;;;;;;6276733;22;19931;-84
2024/01/09 06:37:23;;;;;;;;;;;10.70;66.90;;;;;;6276569;22;19903;-83
2024/01/09 06:39:49;;;;;;;;;;;9.80;66.20;;;;;;6276364;22;19904;-83
2024/01/09 06:42:15;;;;;;;;;;;9.20;66.00;;;;;;6276395;22;19939;-74
2024/01/09 06:44:40;;;;;;;;;;;9.90;66.70;;;;;;6276301;22;19907;-85
2024/01/09 06:47:06;;;;;;;;;;;9.30;66.10;;;;;;6276075;22;19978;-79
2024/01/09 06:49:31;;;;;;;;;;;9.80;66.40;;;;;;6276143;22;19913;-86
2024/01/09 06:51:57;;;;;;;;;;;10.10;66.60;;;;;;6276816;22;20307;-77
2024/01/09 06:54:22;;;;;;;;;;;9.60;66.20;;;;;;6276579;22;20337;-87
2024/01/09 06:56:48;;;;;;;;;;;9.50;66.20;;;;;;6276282;22;20359;-88
2024/01/09 06:59:13;;;;;;;;;;;9.30;66.10;;;;;;6277053;22;19910;-86
2024/01/09 07:01:39;;;;;;;;;;;9.30;65.60;;;;;;6276296;22;19903;-84
2024/01/09 07:04:08;;;;;;;;;;;9.90;66.40;;;;;;6279083;22;19916;-77
2024/01/09 07:06:34;;;;;;;;;;;9.50;61.00;;;;;;6275856;22;19911;-75
2024/01/09 07:08:59;;;;;;;;;;;9.90;66.10;;;;;;6248805;22;19954;-81
2024/01/09 07:11:25;;;;;;;;;;;9.80;66.10;;;;;;6275819;22;19972;-77
2024/01/09 07:13:50;;;;;;;;;;;9.40;65.80;;;;;;6275848;22;19907;-78
2024/01/09 07:16:16;;;;;;;;;;;10.00;66.30;;;;;;6275911;22;19904;-77
2024/01/09 07:18:41;;;;;;;;;;;9.30;65.80;;;;;;6275764;22;19907;-82
2024/01/09 07:21:07;;;;;;;;;;;9.90;66.40;;;;;;6275924;22;19903;-80
2024/01/09 07:23:32;;;;;;;;;;;9.60;65.80;;;;;;6275839;22;20315;-79
2024/01/09 07:25:58;;;;;;;;;;;9.90;66.10;;;;;;6275675;22;19982;-79
2024/01/09 07:28:24;;;;;;;;;;;9.80;66.20;;;;;;6276227;22;19964;-84
2024/01/09 07:30:52;;;;;;;;;;;9.30;65.90;;;;;;6275780;22;19903;-81
2024/01/09 07:33:17;;;;;;;;;;;9.80;66.10;;;;;;6275995;22;19903;-79
2024/01/09 07:35:43;;;;;;;;;;;9.70;66.40;;;;;;6275809;22;20243;-75
2024/01/09 07:38:09;;;;;;;;;;;9.30;65.80;;;;;;6276972;22;20273;-78
2024/01/09 07:40:35;;;;;;;;;;;9.70;66.20;;;;;;6276544;22;19930;-77
2024/01/09 07:43:01;;;;;;;;;;;9.70;66.20;;;;;;6275949;22;19907;-77
2024/01/09 07:45:29;;;;;;;;;;;9.20;65.90;;;;;;6276294;22;19957;-77
2024/01/09 07:47:55;;;;;;;;;;;9.70;66.50;;;;;;6275473;22;19918;-77
2024/01/09 07:50:21;;;;;;;;;;;9.70;66.60;;;;;;6275748;22;19914;-77
2024/01/09 07:52:46;;;;;;;;;;;9.10;65.60;;;;;;6275757;22;19939;-77
2024/01/09 07:55:12;;;;;;;;;;;9.30;65.90;;;;;;6275469;22;19986;-76
2024/01/09 07:57:38;;;;;;;;;;;9.20;66.00;;;;;;6275464;22;19903;-77
2024/01/09 08:00:04;;;;;;;;;;;9.70;66.20;;;;;;6275699;22;19926;-76
2024/01/09 08:02:30;;;;;;;;;;;9.20;65.50;;;;;;6275407;22;19919;-76
2024/01/09 08:04:55;;;;;;;;;;;9.90;66.20;;;;;;6275756;22;19903;-76
2024/01/09 08:07:21;;;;;;;;;;;9.70;66.30;;;;;;6276348;22;19907;-76
2024/01/09 08:09:46;;;;;;;;;;;9.80;65.90;;;;;;6276004;22;19904;-76
2024/01/09 08:12:12;;;;;;;;;;;9.30;65.60;;;;;;6248546;22;19982;-74
2024/01/09 08:14:37;;;;;;;;;;;9.80;65.90;;;;;;6275702;22;19966;-76
2024/01/09 08:17:03;;;;;;;;;;;9.80;66.10;;;;;;6275676;22;19903;-76
2024/01/09 08:19:29;;;;;;;;;;;9.80;65.80;;;;;;6276015;22;19957;-76
2024/01/09 08:21:55;;;;;;;;;;;9.20;65.10;;;;;;6276170;22;19982;-76
2024/01/09 08:24:21;;;;;;;;;;;9.20;65.40;;;;;;6276429;22;19927;-76
2024/01/09 08:26:50;;;;;;;;;;;9.90;66.00;;;;;;6286535;22;20306;-76
2024/01/09 08:29:16;;;;;;;;;;;9.30;61.30;;;;;;6275528;22;19911;-75
2024/01/09 08:31:48;;;;;;;;;;;9.20;65.30;;;;;;6275899;22;19911;-76
2024/01/09 08:34:14;;;;;;;;;;;9.30;60.30;;;;;;6275801;22;20292;-75
2024/01/09 08:36:42;;;;;;;;;;;9.40;65.40;;;;;;6275791;22;20006;-76
2024/01/09 08:39:17;;;;;;;;;;;9.40;65.00;;;;;;6275803;22;19910;-77
2024/01/09 08:41:43;;;;;;;;;;;9.30;65.00;;;;;;6275771;22;19903;-76
2024/01/09 08:44:08;;;;;;;;;;;9.30;64.30;;;;;;6276114;22;19935;-77
2024/01/09 08:46:34;;;;;;;;;;;9.80;64.20;;;;;;6275681;22;20238;-76
2024/01/09 08:49:00;;;;;;;;;;;10.00;64.30;;;;;;6275783;22;19943;-73
2024/01/09 08:51:25;;;;;;;;;;;10.10;64.60;;;;;;6277627;22;19911;-76
2024/01/09 08:53:52;;;;;;;;;;;10.00;64.00;;;;;;6278169;22;19910;-76
2024/01/09 08:56:18;;;;;;;;;;;10.00;64.40;;;;;;6277460;22;19910;-76
2024/01/09 08:58:43;;;;;;;;;;;9.20;64.10;;;;;;6277506;22;19907;-77
2024/01/09 09:01:10;;;;;;;;;;;9.20;63.70;;;;;;6277341;22;19926;-76
2024/01/09 09:03:36;;;;;;;;;;;9.30;64.20;;;;;;6277298;22;20326;-77
2024/01/09 09:06:02;;;;;;;;;;;9.80;64.50;;;;;;6277498;22;19910;-77
2024/01/09 09:08:27;;;;;;;;;;;9.20;64.20;;;;;;6277191;22;19912;-77
2024/01/09 09:10:53;;;;;;;;;;;10.00;64.70;;;;;;6277177;22;20285;-77
2024/01/09 09:13:18;;;;;;;;;;;9.30;64.40;;;;;;6277101;22;19910;-76
2024/01/09 09:15:44;;;;;;;;;;;9.30;64.00;;;;;;6277256;22;19907;-76
2024/01/09 09:18:10;;;;;;;;;;;9.90;64.20;;;;;;6277234;22;20238;-76
2024/01/09 09:20:36;;;;;;;;;;;9.40;64.00;;;;;;6277104;22;19903;-76
2024/01/09 09:23:01;;;;;;;;;;;10.00;64.50;;;;;;6277251;22;20326;-77
2024/01/09 09:25:27;;;;;;;;;;;9.90;64.30;;;;;;6277193;22;19910;-76
2024/01/09 09:27:53;;;;;;;;;;;9.80;64.50;;;;;;6277118;22;19931;-77
2024/01/09 09:30:19;;;;;;;;;;;10.00;64.60;;;;;;6277009;22;19909;-77
2024/01/09 09:32:44;;;;;;;;;;;9.80;64.50;;;;;;6277067;22;19939;-78
2024/01/09 09:35:10;;;;;;;;;;;9.90;64.70;;;;;;6277090;22;19907;-79
2024/01/09 09:37:35;;;;;;;;;;;9.30;64.00;;;;;;6276954;22;19903;-79
2024/01/09 09:40:01;;;;;;;;;;;10.00;64.20;;;;;;6276971;22;19935;-78
2024/01/09 09:42:30;;;;;;;;;;;9.30;63.80;;;;;;6277008;22;19927;-77
2024/01/09 09:44:57;;;;;;;;;;;9.80;64.20;;;;;;6276916;22;19903;-77
2024/01/09 09:47:24;;;;;;;;;;;10.10;64.50;;;;;;6276808;22;19917;-78
2024/01/09 09:49:50;;;;;;;;;;;9.90;64.40;;;;;;6276942;22;19907;-78
2024/01/09 09:52:17;;;;;;;;;;;10.10;64.70;;;;;;6276802;22;19910;-80
2024/01/09 09:54:44;;;;;;;;;;;9.80;64.30;;;;;;6276873;22;19910;-81
2024/01/09 09:57:09;;;;;;;;;;;10.00;64.40;;;;;;6276760;22;20237;-79
2024/01/09 09:59:35;;;;;;;;;;;9.60;64.30;;;;;;6276629;22;19931;-78
2024/01/09 10:02:04;;;;;;;;;;;9.50;63.90;;;;;;6276038;22;19915;-79
2024/01/09 10:04:35;;;;;;;;;;;9.80;64.50;;;;;;6287034;22;19914;-78
2024/01/09 10:07:03;;;;;;;;;;;9.50;59.20;;;;;;6276802;22;19934;-78
2024/01/09 10:09:34;;;;;;;;;;;10.10;64.10;;;;;;6286903;22;20096;-78
2024/01/09 10:11:59;;;;;;;;;;;10.00;63.90;;;;;;6276803;22;19910;-78
2024/01/09 10:14:25;;;;;;;;;;;10.10;63.90;;;;;;6276732;22;19904;-78
2024/01/09 10:16:53;;;;;;;;;;;10.30;63.90;;;;;;6277236;22;19907;-79
2024/01/09 10:19:19;;;;;;;;;;;10.20;63.80;;;;;;6276570;22;20279;-78
2024/01/09 10:21:44;;;;;;;;;;;9.70;63.80;;;;;;6276470;22;19919;-70
2024/01/09 10:24:10;;;;;;;;;;;10.30;64.20;;;;;;6276458;22;19907;-70
2024/01/09 10:26:36;;;;;;;;;;;9.90;63.90;;;;;;6276394;22;19909;-70
2024/01/09 10:29:03;;;;;;;;;;;10.40;64.00;;;;;;6276283;22;20246;-70
2024/01/09 10:31:30;;;;;;;;;;;10.30;63.60;;;;;;6276468;22;19904;-76
2024/01/09 10:33:56;;;;;;;;;;;10.40;63.80;;;;;;6276526;22;19903;-70
2024/01/09 10:36:22;;;;;;;;;;;10.30;63.70;;;;;;6277065;22;19911;-70
2024/01/09 10:38:48;;;;;;;;;;;10.70;63.70;;;;;;6276699;22;19903;-70
2024/01/09 10:41:17;;;;;;;;;;;10.70;63.70;;;;;;6276225;22;20002;-70
2024/01/09 10:43:43;;;;;;;;;;;10.20;58.30;;;;;;6276184;22;19904;-70
2024/01/09 10:46:09;;;;;;;;;;;10.80;63.60;;;;;;6276126;22;19910;-70
2024/01/09 10:48:35;;;;;;;;;;;10.70;63.90;;;;;;6276009;22;20319;-70
2024/01/09 10:51:01;;;;;;;;;;;10.80;63.60;;;;;;6276246;22;20348;-70
2024/01/09 10:53:27;;;;;;;;;;;10.50;63.10;;;;;;6276230;22;19938;-69
2024/01/09 10:55:54;;;;;;;;;;;10.80;63.40;;;;;;6248976;22;19903;-69
2024/01/09 10:58:20;;;;;;;;;;;10.80;63.90;;;;;;6276331;22;20315;-70
2024/01/09 11:00:47;;;;;;;;;;;11.20;63.80;;;;;;6248961;22;19911;-70
2024/01/09 11:03:12;;;;;;;;;;;10.40;62.70;;;;;;6286121;22;19915;-69
2024/01/09 11:05:38;;;;;;;;;;;10.60;63.40;;;;;;6276031;22;20318;-70
2024/01/09 11:08:05;;;;;;;;;;;11.40;63.90;;;;;;6276346;22;19911;-69
2024/01/09 11:10:31;;;;;;;;;;;10.60;63.10;;;;;;6275970;22;19926;-70
2024/01/09 11:12:58;;;;;;;;;;;10.40;63.30;;;;;;6248446;22;19903;-69
2024/01/09 11:15:26;;;;;;;;;;;11.20;63.80;;;;;;6275985;22;19903;-70
2024/01/09 11:17:53;;;;;;;;;;;10.70;63.60;;;;;;6276217;22;19907;-75
2024/01/09 11:20:19;;;;;;;;;;;11.40;64.20;;;;;;6275837;22;20234;-70
2024/01/09 11:22:45;;;;;;;;;;;11.00;63.50;;;;;;6275795;22;19903;-70
2024/01/09 11:25:15;;;;;;;;;;;10.90;63.60;;;;;;6275818;22;19907;-71
2024/01/09 11:27:41;;;;;;;;;;;10.90;63.50;;;;;;6258775;22;20285;-71
2024/01/09 11:30:09;;;;;;;;;;;11.10;63.20;;;;;;6285988;22;19930;-72
2024/01/09 11:32:34;;;;;;;;;;;11.00;62.10;;;;;;6275786;22;19926;-71
2024/01/09 11:35:13;;;;;;;;;;;11.30;63.10;;;;;;6248657;22;19908;-70
2024/01/09 11:37:40;;;;;;;;;;;11.20;58.20;;;;;;6275689;22;19911;-71
2024/01/09 11:40:06;;;;;;;;;;;11.20;62.80;;;;;;6275720;22;19903;-71
2024/01/09 11:42:32;;;;;;;;;;;11.30;62.10;;;;;;6275551;22;19911;-71
2024/01/09 11:44:57;;;;;;;;;;;11.30;63.10;;;;;;6275959;22;19903;-71
2024/01/09 11:47:23;;;;;;;;;;;11.40;63.00;;;;;;6275581;22;20323;-71
2024/01/09 11:49:48;;;;;;;;;;;11.50;62.90;;;;;;6275602;22;19907;-71
2024/01/09 11:52:14;;;;;;;;;;;11.70;63.20;;;;;;6275676;22;19904;-71
2024/01/09 11:54:41;;;;;;;;;;;11.60;62.60;;;;;;6275736;22;20395;-71
2024/01/09 11:57:09;;;;;;;;;;;11.60;63.00;;;;;;6275428;22;19929;-70
2024/01/09 11:59:34;;;;;;;;;;;11.60;62.60;;;;;;6275478;22;19903;-71
2024/01/09 12:02:00;;;;;;;;;;;11.60;62.00;;;;;;6275663;22;19907;-71
2024/01/09 12:04:28;;;;;;;;;;;11.70;62.70;;;;;;6286064;22;19913;-71
2024/01/09 12:06:54;;;;;;;;;;;11.70;62.90;;;;;;6275669;22;19931;-70
2024/01/09 12:09:20;;;;;;;;;;;11.70;62.60;;;;;;6275862;22;19915;-70
2024/01/09 12:11:46;;;;;;;;;;;11.90;62.80;;;;;;6275423;22;19904;-71
2024/01/09 12:14:12;;;;;;;;;;;11.90;63.00;;;;;;6276041;22;19904;-71
2024/01/09 12:16:37;;;;;;;;;;;12.00;62.50;;;;;;6275432;22;19910;-71
2024/01/09 12:19:02;;;;;;;;;;;12.00;62.60;;;;;;6275335;22;20348;-70
2024/01/09 12:21:29;;;;;;;;;;;12.00;62.30;;;;;;6275382;22;19910;-70
2024/01/09 12:23:56;;;;;;;;;;;12.00;62.40;;;;;;6275808;22;19957;-70
2024/01/09 12:26:22;;;;;;;;;;;12.10;62.50;;;;;;6278040;22;19956;-70
2024/01/09 12:28:48;;;;;;;;;;;12.10;62.20;;;;;;6277330;22;19911;-70
2024/01/09 12:31:15;;;;;;;;;;;12.30;62.00;;;;;;6277555;22;19903;-71
2024/01/09 12:33:40;;;;;;;;;;;12.30;62.10;;;;;;6277450;22;19907;-70
2024/01/09 12:36:06;;;;;;;;;;;12.50;62.40;;;;;;6277330;22;19903;-71
2024/01/09 12:38:32;;;;;;;;;;;12.30;60.40;;;;;;6277375;22;20246;-70
2024/01/09 12:40:58;;;;;;;;;;;12.30;61.50;;;;;;6277690;22;19978;-71
2024/01/09 12:43:24;;;;;;;;;;;12.40;62.40;;;;;;6277348;22;19908;-70
2024/01/09 12:45:50;;;;;;;;;;;12.50;62.10;;;;;;6277344;22;19974;-70
2024/01/09 12:48:16;;;;;;;;;;;12.50;61.70;;;;;;6277219;22;20283;-70
2024/01/09 12:50:41;;;;;;;;;;;12.60;61.40;;;;;;6277244;22;19912;-70
2024/01/09 12:53:10;;;;;;;;;;;12.60;61.50;;;;;;6249944;22;19934;-70
2024/01/09 12:55:35;;;;;;;;;;;12.70;61.70;;;;;;6277824;22;20314;-70
2024/01/09 12:58:01;;;;;;;;;;;12.60;61.10;;;;;;6277235;22;19926;-70
2024/01/09 13:00:26;;;;;;;;;;;12.70;61.60;;;;;;6249904;22;19904;-70
2024/01/09 13:02:52;;;;;;;;;;;12.60;61.20;;;;;;6276856;22;19915;-71
2024/01/09 13:05:18;;;;;;;;;;;12.70;61.40;;;;;;6277163;22;19935;-71
2024/01/09 13:07:44;;;;;;;;;;;12.80;60.90;;;;;;6277233;22;19915;-71
2024/01/09 13:10:10;;;;;;;;;;;12.80;60.60;;;;;;6276982;22;20077;-70
2024/01/09 13:12:36;;;;;;;;;;;13.00;60.80;;;;;;6277216;22;19907;-71
2024/01/09 13:15:02;;;;;;;;;;;12.80;60.60;;;;;;6277110;22;19903;-71
2024/01/09 13:17:28;;;;;;;;;;;12.90;61.00;;;;;;6276988;22;19903;-70
2024/01/09 13:19:54;;;;;;;;;;;13.20;60.80;;;;;;6287389;22;19911;-70
2024/01/09 13:22:20;;;;;;;;;;;13.00;60.50;;;;;;6277029;22;19903;-72
2024/01/09 13:24:46;;;;;;;;;;;12.90;60.00;;;;;;6277100;22;19910;-70
2024/01/09 13:27:11;;;;;;;;;;;12.90;60.00;;;;;;6276818;22;19927;-71
2024/01/09 13:29:37;;;;;;;;;;;13.10;59.70;;;;;;6276902;22;19939;-71
2024/01/09 13:32:02;;;;;;;;;;;13.10;59.90;;;;;;6276772;22;19954;-69
2024/01/09 13:34:28;;;;;;;;;;;13.10;59.80;;;;;;6276742;22;20269;-71
2024/01/09 13:36:55;;;;;;;;;;;12.20;59.90;;;;;;6276884;22;19903;-72
2024/01/09 13:39:23;;;;;;;;;;;13.10;60.30;;;;;;6277362;22;20267;-70
2024/01/09 13:41:48;;;;;;;;;;;13.10;60.00;;;;;;6277567;22;19910;-70
2024/01/09 13:44:16;;;;;;;;;;;13.20;60.00;;;;;;6276771;22;19903;-74
2024/01/09 13:46:41;;;;;;;;;;;13.20;60.00;;;;;;6276795;22;19910;-70
2024/01/09 13:49:07;;;;;;;;;;;13.20;60.00;;;;;;6276619;22;19911;-69
2024/01/09 13:51:32;;;;;;;;;;;13.20;60.00;;;;;;6276686;22;19941;-70
2024/01/09 13:53:58;;;;;;;;;;;13.30;60.30;;;;;;6276844;22;20341;-70
2024/01/09 13:56:23;;;;;;;;;;;13.30;60.00;;;;;;6276561;22;20043;-70
2024/01/09 13:58:50;;;;;;;;;;;13.40;59.90;;;;;;6276693;22;19964;-70
2024/01/09 14:01:15;;;;;;;;;;;13.40;59.10;;;;;;6276412;22;19907;-70
2024/01/09 14:03:41;;;;;;;;;;;13.40;59.60;;;;;;6276373;22;19922;-70
2024/01/09 14:06:06;;;;;;;;;;;13.30;59.70;;;;;;6276680;22;19903;-70
2024/01/09 14:08:33;;;;;;;;;;;13.40;59.80;;;;;;6276394;22;20358;-70
2024/01/09 14:10:59;;;;;;;;;;;13.40;59.10;;;;;;6277183;22;19934;-70
2024/01/09 14:13:24;;;;;;;;;;;13.50;60.00;;;;;;6276364;22;19910;-70